createdAt,value
2019-01-09T00:02:25.401Z,0.40
2019-01-09T00:04:57.842Z,0.37
2019-01-09T00:07:30.401Z,0.20
2019-01-09T00:10:03.483Z,0.20
2019-01-09T00:12:35.623Z,0.20
2019-01-09T00:15:08.922Z,0.27
2019-01-09T00:17:41.078Z,0.27
2019-01-09T00:20:13.561Z,0.30
2019-01-09T00:22:45.563Z,0.33
2019-01-09T00:25:17.199Z,0.10
2019-01-09T00:27:49.146Z,0.00
2019-01-09T00:30:21.281Z,0.30
2019-01-09T00:32:53.181Z,0.27
2019-01-09T00:35:25.315Z,0.47
2019-01-09T00:37:57.241Z,0.30
2019-01-09T00:40:29.463Z,0.20
2019-01-09T00:43:01.505Z,0.20
2019-01-09T00:45:33.401Z,0.40
2019-01-09T00:48:05.140Z,0.10
2019-01-09T00:50:38.020Z,0.10
2019-01-09T00:53:10.340Z,0.40
2019-01-09T00:55:42.963Z,0.10
2019-01-09T00:58:15.281Z,0.33
2019-01-09T01:00:47.442Z,0.27
2019-01-09T01:03:51.981Z,0.00
2019-01-09T01:07:15.593Z,0.23
2019-01-09T01:10:16.502Z,0.30
2019-01-09T01:13:37.862Z,0.23
2019-01-09T01:17:01.682Z,0.23
2019-01-09T01:20:17.282Z,0.10
2019-01-09T01:23:25.362Z,0.30
2019-01-09T01:26:47.239Z,0.07
2019-01-09T01:30:06.582Z,0.13
2019-01-09T01:33:04.021Z,0.30
2019-01-09T01:36:37.234Z,0.00
2019-01-09T01:39:45.261Z,0.10
2019-01-09T01:42:55.302Z,0.30
2019-01-09T01:46:03.372Z,0.10
2019-01-09T01:49:02.721Z,0.10
2019-01-09T01:52:10.721Z,0.10
2019-01-09T01:55:14.801Z,0.20
2019-01-09T01:58:17.203Z,0.00
2019-01-09T02:01:19.922Z,0.03
2019-01-09T02:04:33.222Z,0.30
2019-01-09T02:07:27.250Z,0.10
2019-01-09T02:10:21.679Z,0.00
2019-01-09T02:13:31.701Z,0.00
2019-01-09T02:16:52.541Z,0.30
2019-01-09T02:19:46.779Z,0.00
2019-01-09T02:23:14.641Z,0.00
2019-01-09T02:26:14.561Z,0.30
2019-01-09T02:29:29.619Z,0.00
2019-01-09T02:32:26.107Z,0.20
2019-01-09T02:34:58.118Z,0.20
2019-01-09T02:37:31.161Z,0.20
2019-01-09T02:40:03.234Z,0.10
2019-01-09T02:42:34.962Z,0.00
2019-01-09T02:45:07.144Z,0.10
2019-01-09T02:47:39.122Z,0.10
2019-01-09T02:50:11.145Z,0.20
2019-01-09T02:52:42.782Z,0.07
2019-01-09T02:55:15.001Z,0.20
2019-01-09T02:57:56.290Z,0.27
2019-01-09T03:03:24.775Z,0.10
2019-01-09T03:05:56.723Z,0.17
2019-01-09T03:08:30.775Z,0.13
2019-01-09T03:11:03.016Z,0.10
2019-01-09T03:13:34.980Z,0.10
2019-01-09T03:16:06.975Z,0.20
2019-01-09T03:18:38.696Z,0.00
2019-01-09T03:21:11.114Z,0.20
2019-01-09T03:23:42.955Z,0.17
2019-01-09T03:26:14.833Z,0.03
2019-01-09T03:28:47.945Z,0.10
2019-01-09T03:31:20.246Z,0.20
2019-01-09T03:33:52.308Z,0.00
2019-01-09T03:36:32.685Z,0.10
2019-01-09T03:38:58.335Z,0.10
2019-01-09T03:41:30.476Z,0.00
2019-01-09T03:44:02.111Z,0.10
2019-01-09T03:46:33.994Z,0.10
2019-01-09T03:49:06.257Z,0.10
2019-01-09T03:51:38.173Z,0.30
2019-01-09T03:54:10.573Z,0.00
2019-01-09T03:56:42.278Z,0.00
2019-01-09T03:59:14.275Z,0.20
2019-01-09T04:01:45.890Z,0.20
2019-01-09T04:04:17.515Z,0.10
2019-01-09T04:06:49.395Z,0.10
2019-01-09T04:09:20.994Z,0.20
2019-01-09T04:11:52.598Z,0.20
2019-01-09T04:14:24.593Z,0.07
2019-01-09T04:16:56.894Z,0.10
2019-01-09T04:19:28.399Z,0.20
2019-01-09T04:22:00.974Z,0.10
2019-01-09T04:24:32.835Z,0.30
2019-01-09T04:27:05.974Z,0.27
2019-01-09T04:29:37.427Z,0.20
2019-01-09T04:32:09.875Z,0.20
2019-01-09T04:34:41.857Z,0.10
2019-01-09T04:37:13.516Z,0.20
2019-01-09T04:39:45.255Z,0.73
2019-01-09T04:42:18.235Z,0.10
2019-01-09T04:44:50.275Z,0.13
2019-01-09T04:47:22.278Z,0.10
2019-01-09T04:49:54.229Z,0.20
2019-01-09T04:52:25.736Z,0.10
2019-01-09T04:54:57.855Z,0.10
2019-01-09T04:57:29.835Z,0.10
2019-01-09T05:00:02.535Z,0.17
2019-01-09T05:02:35.138Z,0.20
2019-01-09T05:05:06.755Z,0.20
2019-01-09T05:07:38.578Z,0.60
2019-01-09T05:10:10.520Z,0.30
2019-01-09T05:12:42.195Z,0.20
2019-01-09T05:15:13.817Z,0.00
2019-01-09T05:17:45.595Z,0.20
2019-01-09T05:20:17.833Z,0.10
2019-01-09T05:22:49.637Z,0.20
2019-01-09T05:25:21.334Z,0.10
2019-01-09T05:27:52.790Z,0.10
2019-01-09T05:30:24.994Z,0.10
2019-01-09T05:32:57.204Z,0.40
2019-01-09T05:35:28.817Z,0.30
2019-01-09T05:38:00.896Z,0.30
2019-01-09T05:40:32.994Z,0.30
2019-01-09T05:43:04.820Z,0.43
2019-01-09T05:45:36.875Z,0.30
2019-01-09T05:48:08.575Z,0.33
2019-01-09T05:50:40.374Z,0.40
2019-01-09T05:53:12.313Z,0.23
2019-01-09T05:55:43.957Z,0.57
2019-01-09T05:58:15.892Z,0.90
2019-01-09T06:00:47.513Z,0.30
2019-01-09T06:03:19.635Z,0.40
2019-01-09T06:05:51.654Z,0.40
2019-01-09T06:08:23.394Z,0.13
2019-01-09T06:10:55.355Z,0.17
2019-01-09T06:13:27.274Z,0.20
2019-01-09T06:16:00.275Z,0.10
2019-01-09T06:18:31.933Z,0.13
2019-01-09T06:21:04.097Z,0.27
2019-01-09T06:23:36.034Z,0.10
2019-01-09T06:26:08.074Z,0.13
2019-01-09T06:28:39.915Z,0.03
2019-01-09T06:31:11.574Z,0.00
2019-01-09T06:33:43.674Z,0.13
2019-01-09T06:36:15.595Z,0.13
2019-01-09T06:38:47.328Z,0.63
2019-01-09T06:41:19.114Z,0.70
2019-01-09T06:43:50.634Z,0.20
2019-01-09T06:46:22.593Z,0.10
2019-01-09T06:48:54.433Z,0.10
2019-01-09T06:51:26.231Z,0.10
2019-01-09T06:53:57.994Z,0.00
2019-01-09T06:56:29.814Z,0.20
2019-01-09T06:59:01.355Z,0.10
2019-01-09T07:01:33.274Z,0.37
2019-01-09T07:04:04.774Z,0.37
2019-01-09T07:06:37.214Z,0.40
2019-01-09T07:09:08.732Z,0.60
2019-01-09T07:11:40.873Z,0.50
2019-01-09T07:14:13.454Z,0.53
2019-01-09T07:16:45.061Z,0.40
2019-01-09T07:19:16.775Z,0.30
2019-01-09T07:21:48.394Z,0.30
2019-01-09T07:24:20.054Z,0.30
2019-01-09T07:26:51.955Z,0.53
2019-01-09T07:29:23.515Z,0.53
2019-01-09T07:31:55.556Z,0.50
2019-01-09T07:34:27.135Z,0.40
2019-01-09T07:36:58.994Z,0.50
2019-01-09T07:39:30.693Z,0.43
2019-01-09T07:42:02.255Z,0.67
2019-01-09T07:44:34.014Z,0.20
2019-01-09T07:47:05.714Z,0.13
2019-01-09T07:49:37.694Z,0.37
2019-01-09T07:52:09.253Z,0.60
2019-01-09T07:54:41.174Z,0.70
2019-01-09T07:57:12.936Z,0.37
2019-01-09T07:59:45.035Z,0.27
2019-01-09T08:02:17.400Z,0.40
2019-01-09T08:04:49.491Z,0.03
2019-01-09T08:07:21.387Z,0.13
2019-01-09T08:09:53.032Z,0.30
2019-01-09T08:12:24.555Z,0.20
2019-01-09T08:14:56.383Z,0.20
2019-01-09T08:17:27.994Z,0.00
2019-01-09T08:19:59.535Z,0.13
2019-01-09T08:22:31.314Z,0.00
2019-01-09T08:25:03.034Z,0.10
2019-01-09T08:27:34.609Z,0.10
2019-01-09T08:30:07.330Z,0.10
2019-01-09T08:32:39.351Z,0.10
2019-01-09T08:35:13.007Z,0.20
2019-01-09T08:37:45.097Z,0.40
2019-01-09T08:40:16.705Z,0.40
2019-01-09T08:42:48.514Z,0.27
2019-01-09T08:45:20.056Z,0.70
2019-01-09T08:47:51.714Z,0.50
2019-01-09T08:50:23.145Z,0.40
2019-01-09T08:52:56.435Z,0.63
2019-01-09T08:55:27.934Z,0.63
2019-01-09T08:57:59.917Z,0.20
2019-01-09T09:00:31.360Z,0.40
2019-01-09T09:03:02.860Z,0.30
2019-01-09T09:05:34.918Z,0.40
2019-01-09T09:08:11.754Z,0.30
2019-01-09T09:10:41.215Z,0.40
2019-01-09T09:13:25.174Z,0.20
2019-01-09T09:15:57.133Z,0.20
2019-01-09T09:18:28.994Z,0.40
2019-01-09T09:21:01.034Z,0.27
2019-01-09T09:23:33.066Z,0.20
2019-01-09T09:26:04.838Z,0.20
2019-01-09T09:28:36.714Z,0.40
2019-01-09T09:31:08.535Z,0.10
2019-01-09T09:33:40.336Z,0.13
2019-01-09T09:36:12.034Z,0.20
2019-01-09T09:38:43.892Z,0.40
2019-01-09T09:41:15.554Z,0.03
2019-01-09T09:43:47.053Z,0.33
2019-01-09T09:46:18.914Z,0.30
2019-01-09T09:48:50.614Z,0.40
2019-01-09T09:51:22.033Z,0.10
2019-01-09T09:53:54.089Z,0.27
2019-01-09T09:56:25.594Z,0.27
2019-01-09T09:58:57.563Z,0.20
2019-01-09T10:01:29.094Z,0.40
2019-01-09T10:04:00.735Z,0.10
2019-01-09T10:06:33.274Z,0.20
2019-01-09T10:09:08.414Z,0.30
2019-01-09T10:11:40.494Z,0.13
2019-01-09T10:14:12.313Z,0.20
2019-01-09T10:16:44.561Z,0.20
2019-01-09T10:19:16.336Z,0.30
2019-01-09T10:21:48.275Z,0.30
2019-01-09T10:24:20.576Z,0.23
2019-01-09T10:26:54.100Z,0.30
2019-01-09T10:29:25.514Z,0.30
2019-01-09T10:31:59.103Z,0.40
2019-01-09T10:34:31.035Z,0.20
2019-01-09T10:37:02.459Z,0.30
2019-01-09T10:39:34.655Z,0.47
2019-01-09T10:42:08.112Z,0.30
2019-01-09T10:44:40.155Z,0.63
2019-01-09T10:47:12.053Z,0.30
2019-01-09T10:49:43.862Z,0.60
2019-01-09T10:52:15.975Z,0.63
2019-01-09T10:54:47.654Z,0.20
2019-01-09T10:57:19.734Z,0.30
2019-01-09T10:59:51.375Z,0.40
2019-01-09T11:02:22.947Z,0.47
2019-01-09T11:04:54.713Z,0.80
2019-01-09T11:07:26.589Z,0.40
2019-01-09T11:09:59.376Z,0.30
2019-01-09T11:12:31.094Z,0.77
2019-01-09T11:15:02.916Z,1.00
2019-01-09T11:17:36.053Z,0.50
2019-01-09T11:20:10.116Z,0.87
2019-01-09T11:22:42.094Z,0.30
2019-01-09T11:25:19.396Z,0.50
2019-01-09T11:27:51.237Z,0.70
2019-01-09T11:30:22.895Z,0.53
2019-01-09T11:32:55.914Z,0.40
2019-01-09T11:35:27.761Z,0.60
2019-01-09T11:37:59.832Z,0.23
2019-01-09T11:40:31.875Z,0.47
2019-01-09T11:43:04.415Z,0.30
2019-01-09T11:45:36.373Z,0.30
2019-01-09T11:48:08.775Z,0.43
2019-01-09T11:50:40.874Z,0.60
2019-01-09T11:53:12.987Z,0.70
2019-01-09T11:55:44.875Z,0.60
2019-01-09T11:58:17.785Z,0.43
2019-01-09T12:00:49.370Z,0.77
2019-01-09T12:03:21.593Z,0.50
2019-01-09T12:05:53.534Z,0.57
2019-01-09T12:08:25.233Z,0.50
2019-01-09T12:10:57.641Z,0.60
2019-01-09T12:13:29.473Z,0.57
2019-01-09T12:16:07.952Z,0.30
2019-01-09T12:18:35.074Z,0.40
2019-01-09T12:21:16.544Z,0.40
2019-01-09T12:23:40.875Z,0.50
2019-01-09T12:26:13.074Z,0.50
2019-01-09T12:28:53.217Z,0.60
2019-01-09T12:31:18.354Z,0.50
2019-01-09T12:33:50.097Z,0.43
2019-01-09T12:36:21.895Z,0.30
2019-01-09T12:38:53.797Z,0.50
2019-01-09T12:41:25.715Z,0.60
2019-01-09T12:43:57.674Z,0.20
2019-01-09T12:46:29.454Z,0.37
2019-01-09T12:49:01.154Z,0.40
2019-01-09T12:51:32.794Z,0.40
2019-01-09T12:54:04.734Z,0.53
2019-01-09T12:56:36.214Z,0.20
2019-01-09T12:59:08.022Z,0.50
2019-01-09T13:01:39.875Z,0.67
2019-01-09T13:04:11.516Z,0.30
2019-01-09T13:06:43.116Z,0.60
2019-01-09T13:09:22.049Z,1.80
2019-01-09T13:11:48.255Z,1.60
2019-01-09T13:14:20.196Z,0.60
2019-01-09T13:16:52.314Z,0.63
2019-01-09T13:19:24.008Z,0.70
2019-01-09T13:21:55.833Z,0.70
2019-01-09T13:24:27.456Z,0.90
2019-01-09T13:26:59.134Z,0.53
2019-01-09T13:29:30.855Z,0.53
2019-01-09T13:32:02.597Z,0.40
2019-01-09T13:34:34.254Z,0.60
2019-01-09T13:37:06.137Z,0.90
2019-01-09T13:39:37.998Z,0.50
2019-01-09T13:42:10.485Z,0.23
2019-01-09T13:44:42.129Z,0.87
2019-01-09T13:47:14.178Z,0.80
2019-01-09T13:49:45.793Z,0.50
2019-01-09T13:52:17.573Z,0.43
2019-01-09T13:54:49.274Z,0.57
2019-01-09T13:57:21.094Z,0.60
2019-01-09T13:59:52.674Z,0.60
2019-01-09T14:02:25.660Z,0.80
2019-01-09T14:04:57.434Z,0.67
2019-01-09T14:07:29.334Z,0.40
2019-01-09T14:10:00.976Z,0.63
2019-01-09T14:12:33.841Z,0.77
2019-01-09T14:15:07.022Z,0.50
2019-01-09T14:17:38.673Z,0.80
2019-01-09T14:20:11.093Z,0.50
2019-01-09T14:22:42.608Z,0.53
2019-01-09T14:25:14.373Z,0.50
2019-01-09T14:27:45.961Z,0.73
2019-01-09T14:30:23.736Z,0.70
2019-01-09T14:32:55.635Z,0.70
2019-01-09T14:35:27.194Z,0.80
2019-01-09T14:37:58.974Z,1.20
2019-01-09T14:40:31.067Z,1.20
2019-01-09T14:43:02.615Z,1.50
2019-01-09T14:45:34.638Z,1.20
2019-01-09T14:48:06.415Z,1.07
2019-01-09T14:50:38.694Z,0.83
2019-01-09T14:53:10.438Z,0.60
2019-01-09T14:55:42.104Z,0.67
2019-01-09T14:58:13.734Z,0.33
2019-01-09T15:00:45.555Z,1.37
2019-01-09T15:03:17.095Z,1.13
2019-01-09T15:05:48.562Z,1.00
2019-01-09T15:08:20.276Z,0.63
2019-01-09T15:10:52.019Z,1.20
2019-01-09T15:13:23.814Z,1.10
2019-01-09T15:15:56.726Z,1.10
2019-01-09T15:18:28.359Z,0.70
2019-01-09T15:21:00.455Z,1.33
2019-01-09T15:23:32.255Z,1.50
2019-01-09T15:26:04.894Z,1.10
2019-01-09T15:28:38.495Z,1.43
2019-01-09T15:31:10.094Z,1.23
2019-01-09T15:33:41.814Z,1.33
2019-01-09T15:36:13.455Z,0.80
2019-01-09T15:38:45.535Z,0.80
2019-01-09T15:41:17.195Z,1.00
2019-01-09T15:43:49.127Z,1.40
2019-01-09T15:46:21.082Z,1.20
2019-01-09T15:48:53.055Z,1.40
2019-01-09T15:51:24.630Z,1.47
2019-01-09T15:53:56.441Z,1.20
2019-01-09T15:56:28.114Z,1.40
2019-01-09T15:58:59.934Z,1.60
2019-01-09T16:01:32.753Z,1.17
2019-01-09T16:04:04.234Z,1.97
2019-01-09T16:06:36.335Z,1.90
2019-01-09T16:09:10.138Z,1.30
2019-01-09T16:11:42.196Z,1.97
2019-01-09T16:14:14.354Z,1.57
2019-01-09T16:16:48.435Z,1.63
2019-01-09T16:19:20.394Z,2.10
2019-01-09T16:21:52.409Z,2.20
2019-01-09T16:24:24.556Z,1.90
2019-01-09T16:26:56.136Z,2.27
2019-01-09T16:29:27.935Z,1.93
2019-01-09T16:32:00.196Z,1.93
2019-01-09T16:34:32.035Z,1.60
2019-01-09T16:37:04.555Z,1.80
2019-01-09T16:39:36.107Z,1.50
2019-01-09T16:42:07.914Z,1.57
2019-01-09T16:44:39.695Z,1.13
2019-01-09T16:47:11.817Z,1.27
2019-01-09T16:49:43.736Z,1.40
2019-01-09T16:52:15.714Z,1.10
2019-01-09T16:54:47.354Z,1.10
2019-01-09T16:57:19.915Z,1.17
2019-01-09T16:59:52.815Z,1.07
2019-01-09T17:02:25.252Z,0.73
2019-01-09T17:04:59.943Z,1.33
2019-01-09T17:07:31.957Z,1.67
2019-01-09T17:10:04.134Z,1.30
2019-01-09T17:12:35.795Z,1.43
2019-01-09T17:15:08.562Z,1.80
2019-01-09T17:17:40.575Z,1.47
2019-01-09T17:20:15.797Z,1.90
2019-01-09T17:22:47.714Z,1.10
2019-01-09T17:25:20.420Z,1.37
2019-01-09T17:27:52.297Z,1.63
2019-01-09T17:30:26.154Z,1.90
2019-01-09T17:32:58.314Z,1.80
2019-01-09T17:35:30.495Z,1.07
2019-01-09T17:38:02.636Z,1.40
2019-01-09T17:40:40.864Z,0.97
2019-01-09T17:43:07.834Z,1.70
2019-01-09T17:45:40.095Z,1.27
2019-01-09T17:48:12.280Z,1.20
2019-01-09T17:50:44.492Z,0.60
2019-01-09T17:53:16.874Z,1.00
2019-01-09T17:55:48.674Z,1.07
2019-01-09T17:58:20.553Z,1.10
2019-01-09T18:00:53.180Z,1.80
2019-01-09T18:03:24.835Z,1.60
2019-01-09T18:05:56.534Z,1.70
2019-01-09T18:08:28.755Z,1.37
2019-01-09T18:11:00.506Z,1.23
2019-01-09T18:13:32.176Z,1.30
2019-01-09T18:16:06.314Z,0.83
2019-01-09T18:18:38.455Z,2.70
2019-01-09T18:21:10.838Z,1.87
2019-01-09T18:23:42.664Z,1.40
2019-01-09T18:26:14.656Z,1.30
2019-01-09T18:28:46.656Z,1.37
2019-01-09T18:32:02.174Z,1.27
2019-01-09T18:34:49.298Z,1.00
2019-01-09T18:38:05.154Z,1.70
2019-01-09T18:41:28.555Z,1.43
2019-01-09T18:44:23.995Z,1.33
2019-01-09T18:47:14.794Z,1.43
2019-01-09T18:50:25.594Z,0.60
2019-01-09T18:53:38.796Z,1.10
2019-01-09T18:56:12.917Z,0.73
2019-01-09T18:58:44.714Z,1.00
2019-01-09T19:01:16.454Z,0.80
2019-01-09T19:03:48.948Z,1.40
2019-01-09T19:06:20.856Z,1.20
2019-01-09T19:08:52.480Z,0.70
2019-01-09T19:11:24.802Z,1.00
2019-01-09T19:13:57.061Z,1.10
2019-01-09T19:16:29.414Z,1.00
2019-01-09T19:19:01.474Z,0.70
2019-01-09T19:21:33.245Z,1.60
2019-01-09T19:24:05.334Z,1.13
2019-01-09T19:26:37.355Z,0.70
2019-01-09T19:29:09.277Z,0.77
2019-01-09T19:31:43.394Z,1.03
2019-01-09T19:34:15.435Z,1.03
2019-01-09T19:36:49.016Z,0.77
2019-01-09T19:39:21.156Z,1.03
2019-01-09T19:41:53.194Z,1.03
2019-01-09T19:44:25.074Z,0.97
2019-01-09T19:46:57.383Z,0.60
2019-01-09T19:49:29.313Z,1.70
2019-01-09T19:52:01.795Z,0.40
2019-01-09T19:54:33.616Z,0.80
2019-01-09T19:57:06.473Z,0.80
2019-01-09T19:59:38.503Z,1.10
2019-01-09T20:02:10.617Z,1.13
2019-01-09T20:04:42.525Z,0.90
2019-01-09T20:07:14.057Z,1.53
2019-01-09T20:09:45.739Z,1.00
2019-01-09T20:12:17.997Z,1.37
2019-01-09T20:14:50.226Z,1.30
2019-01-09T20:17:23.441Z,1.40
2019-01-09T20:19:55.788Z,1.07
2019-01-09T20:22:28.631Z,0.80
2019-01-09T20:25:00.450Z,1.30
2019-01-09T20:27:32.850Z,0.70
2019-01-09T20:30:07.245Z,0.80
2019-01-09T20:32:39.811Z,1.00
2019-01-09T20:35:11.687Z,0.60
2019-01-09T20:37:44.124Z,0.80
2019-01-09T20:40:17.047Z,1.70
2019-01-09T20:42:48.896Z,1.40
2019-01-09T20:45:20.929Z,0.70
2019-01-09T20:47:52.861Z,0.90
2019-01-09T20:50:30.346Z,1.20
2019-01-09T20:53:02.464Z,0.63
2019-01-09T20:55:34.434Z,0.90
2019-01-09T20:58:06.435Z,0.67
2019-01-09T21:00:39.634Z,0.90
2019-01-09T21:03:13.303Z,0.90
2019-01-09T21:05:54.470Z,0.70
2019-01-09T21:08:26.565Z,0.73
2019-01-09T21:10:58.259Z,0.50
2019-01-09T21:13:30.618Z,0.80
2019-01-09T21:16:02.170Z,1.00
2019-01-09T21:18:34.176Z,0.80
2019-01-09T21:21:06.256Z,0.83
2019-01-09T21:23:38.177Z,0.40
2019-01-09T21:26:10.494Z,0.80
2019-01-09T21:28:42.597Z,0.80
2019-01-09T21:31:14.095Z,0.97
2019-01-09T21:33:46.336Z,0.70
2019-01-09T21:36:18.176Z,0.60
2019-01-09T21:38:49.955Z,0.53
2019-01-09T21:41:21.814Z,1.03
2019-01-09T21:43:54.395Z,1.10
2019-01-09T21:46:26.095Z,1.20
2019-01-09T21:48:59.203Z,0.90
2019-01-09T21:51:31.754Z,3.87
2019-01-09T21:54:03.255Z,1.20
2019-01-09T21:56:34.874Z,1.00
2019-01-09T21:59:07.174Z,1.00
2019-01-09T22:01:38.913Z,1.00
2019-01-09T22:04:10.795Z,1.07
2019-01-09T22:06:42.485Z,1.10
2019-01-09T22:09:15.454Z,1.23
2019-01-09T22:11:47.272Z,1.93
2019-01-09T22:14:19.435Z,1.70
2019-01-09T22:16:51.735Z,1.50
2019-01-09T22:19:23.322Z,1.10
2019-01-09T22:21:55.774Z,0.97
2019-01-09T22:24:28.134Z,1.23
2019-01-09T22:26:59.688Z,2.20
2019-01-09T22:29:32.315Z,5.20
2019-01-09T22:32:04.296Z,2.87
2019-01-09T22:34:35.894Z,1.20
2019-01-09T22:37:08.194Z,1.30
2019-01-09T22:39:39.955Z,0.80
2019-01-09T22:42:12.420Z,1.53
2019-01-09T22:44:44.867Z,1.37
2019-01-09T22:47:16.674Z,1.43
2019-01-09T22:49:48.577Z,2.00
2019-01-09T22:52:20.110Z,1.27
2019-01-09T22:54:51.953Z,2.10
2019-01-09T22:57:23.754Z,1.67
2019-01-09T22:59:56.336Z,1.23
2019-01-09T23:02:30.056Z,1.23
2019-01-09T23:05:02.164Z,1.77
2019-01-09T23:07:33.994Z,1.63
2019-01-09T23:10:07.296Z,1.30
2019-01-09T23:12:39.014Z,1.30
2019-01-09T23:15:10.955Z,1.67
2019-01-09T23:17:43.914Z,1.37
2019-01-09T23:20:16.557Z,1.10
2019-01-09T23:22:48.679Z,1.00
2019-01-09T23:25:20.315Z,1.20
2019-01-09T23:27:52.694Z,1.20
2019-01-09T23:30:24.475Z,1.00
2019-01-09T23:32:56.676Z,1.30
2019-01-09T23:35:28.614Z,1.00
2019-01-09T23:38:01.068Z,0.83
2019-01-09T23:40:32.714Z,1.27
2019-01-09T23:43:05.193Z,1.30
2019-01-09T23:45:37.574Z,1.83
2019-01-09T23:48:10.935Z,1.03
2019-01-09T23:50:42.795Z,1.50
2019-01-09T23:53:15.014Z,1.40
2019-01-09T23:55:47.789Z,1.23
2019-01-09T23:58:19.677Z,1.93
